createdAt,value
2023-12-10T00:02:35.283Z,3.00
2023-12-10T00:05:20.734Z,3.03
2023-12-10T00:08:06.154Z,3.20
2023-12-10T00:10:51.638Z,3.58
2023-12-10T00:13:37.127Z,4.00
2023-12-10T00:16:22.561Z,4.25
2023-12-10T00:19:08.113Z,4.40
2023-12-10T00:21:53.768Z,3.13
2023-12-10T00:24:39.478Z,4.07
2023-12-10T00:27:25.366Z,4.22
2023-12-10T00:30:11.335Z,3.65
2023-12-10T00:32:56.810Z,3.00
2023-12-10T00:35:42.504Z,3.42
2023-12-10T00:38:28.518Z,4.43
2023-12-10T00:41:14.993Z,4.22
2023-12-10T00:44:00.651Z,3.67
2023-12-10T00:46:46.050Z,3.75
2023-12-10T00:49:31.602Z,3.60
2023-12-10T00:52:17.467Z,3.00
2023-12-10T00:55:02.837Z,4.15
2023-12-10T00:57:48.346Z,3.63
2023-12-10T01:00:33.793Z,4.45
2023-12-10T01:03:19.819Z,2.35
2023-12-10T01:06:05.738Z,4.35
2023-12-10T01:08:51.229Z,3.42
2023-12-10T01:11:36.553Z,3.80
2023-12-10T01:14:21.951Z,4.82
2023-12-10T01:17:09.509Z,4.18
2023-12-10T01:19:55.101Z,5.55
2023-12-10T01:22:41.997Z,4.53
2023-12-10T01:25:28.222Z,6.25
2023-12-10T01:28:13.740Z,5.53
2023-12-10T01:30:59.314Z,5.65
2023-12-10T01:33:45.655Z,5.47
2023-12-10T01:36:31.509Z,4.70
2023-12-10T01:39:17.175Z,5.25
2023-12-10T01:42:02.747Z,5.35
2023-12-10T01:44:48.464Z,5.75
2023-12-10T01:47:36.750Z,6.57
2023-12-10T01:50:23.096Z,5.55
2023-12-10T01:53:09.521Z,5.03
2023-12-10T01:55:55.336Z,4.93
2023-12-10T01:58:41.630Z,5.90
2023-12-10T02:01:28.239Z,4.55
2023-12-10T02:04:15.841Z,3.38
2023-12-10T02:07:01.315Z,5.28
2023-12-10T02:09:47.135Z,4.80
2023-12-10T02:12:35.833Z,5.78
2023-12-10T02:15:22.543Z,5.30
2023-12-10T02:18:08.370Z,5.13
2023-12-10T02:20:53.815Z,4.57
2023-12-10T02:23:51.226Z,4.55
2023-12-10T02:26:38.376Z,5.20
2023-12-10T02:29:24.153Z,4.95
2023-12-10T02:32:09.801Z,6.70
2023-12-10T02:34:55.157Z,6.07
2023-12-10T02:37:40.659Z,5.68
2023-12-10T02:40:26.533Z,6.13
2023-12-10T02:43:12.100Z,8.32
2023-12-10T02:45:57.783Z,7.80
2023-12-10T02:48:43.210Z,7.25
2023-12-10T02:51:28.684Z,5.95
2023-12-10T02:54:14.200Z,5.40
2023-12-10T02:56:59.833Z,4.97
2023-12-10T02:59:45.579Z,4.38
2023-12-10T03:02:31.158Z,3.80
2023-12-10T03:05:17.060Z,3.22
2023-12-10T03:08:02.819Z,4.28
2023-12-10T03:10:48.380Z,3.72
2023-12-10T03:13:33.989Z,6.43
2023-12-10T03:16:19.457Z,5.68
2023-12-10T03:19:05.574Z,7.03
2023-12-10T03:21:51.406Z,5.47
2023-12-10T03:24:37.099Z,5.57
2023-12-10T03:27:23.265Z,6.85
2023-12-10T03:30:09.703Z,6.82
2023-12-10T03:32:55.221Z,6.88
2023-12-10T03:35:40.702Z,6.63
2023-12-10T03:38:26.230Z,8.38
2023-12-10T03:41:11.665Z,7.93
2023-12-10T03:43:57.148Z,8.68
2023-12-10T03:46:42.648Z,9.70
2023-12-10T03:49:29.768Z,11.25
2023-12-10T03:52:15.140Z,12.30
2023-12-10T03:55:00.730Z,12.00
2023-12-10T03:57:47.438Z,13.38
2023-12-10T04:00:32.989Z,16.55
2023-12-10T04:03:18.377Z,16.40
2023-12-10T04:06:04.294Z,13.65
2023-12-10T04:08:50.257Z,13.48
2023-12-10T04:11:37.214Z,15.32
2023-12-10T04:14:22.941Z,15.00
2023-12-10T04:17:08.497Z,13.32
2023-12-10T04:19:54.012Z,13.70
2023-12-10T04:22:39.336Z,13.93
2023-12-10T04:25:24.854Z,12.25
2023-12-10T04:28:10.410Z,11.43
2023-12-10T04:30:56.048Z,11.02
2023-12-10T04:33:43.316Z,10.32
2023-12-10T04:36:29.155Z,10.90
2023-12-10T04:39:16.829Z,8.07
2023-12-10T04:42:02.562Z,6.57
2023-12-10T04:44:48.294Z,7.15
2023-12-10T04:47:34.071Z,7.10
2023-12-10T04:50:19.850Z,6.10
2023-12-10T04:53:05.604Z,7.40
2023-12-10T04:55:51.125Z,8.32
2023-12-10T04:58:36.492Z,7.00
2023-12-10T05:01:22.050Z,6.85
2023-12-10T05:04:07.480Z,7.40
2023-12-10T05:06:53.497Z,6.78
2023-12-10T05:09:39.058Z,5.65
2023-12-10T05:12:24.980Z,5.38
2023-12-10T05:15:10.886Z,6.15
2023-12-10T05:17:56.450Z,7.43
2023-12-10T05:20:42.012Z,6.65
2023-12-10T05:23:27.621Z,5.93
2023-12-10T05:26:12.956Z,5.95
2023-12-10T05:28:58.662Z,5.95
2023-12-10T05:31:44.360Z,5.35
2023-12-10T05:34:30.051Z,5.25
2023-12-10T05:37:15.555Z,5.10
2023-12-10T05:40:00.982Z,5.53
2023-12-10T05:42:46.401Z,3.85
2023-12-10T05:45:31.847Z,4.35
2023-12-10T05:48:17.431Z,4.50
2023-12-10T05:51:04.777Z,4.05
2023-12-10T05:53:52.107Z,5.00
2023-12-10T05:56:38.675Z,4.32
2023-12-10T05:59:24.252Z,4.75
2023-12-10T06:02:09.762Z,4.90
2023-12-10T06:04:55.356Z,5.15
2023-12-10T06:07:40.809Z,5.45
2023-12-10T06:10:26.333Z,5.45
2023-12-10T06:13:12.328Z,5.90
2023-12-10T06:15:58.964Z,6.03
2023-12-10T06:18:44.703Z,6.13
2023-12-10T06:21:31.524Z,5.70
2023-12-10T06:24:18.110Z,4.50
2023-12-10T06:27:03.650Z,5.75
2023-12-10T06:29:49.164Z,5.60
2023-12-10T06:32:34.837Z,6.75
2023-12-10T06:35:20.298Z,8.25
2023-12-10T06:38:05.732Z,8.05
2023-12-10T06:40:52.532Z,6.15
2023-12-10T06:43:38.126Z,7.75
2023-12-10T06:46:23.787Z,5.53
2023-12-10T06:49:09.610Z,6.57
2023-12-10T06:51:55.056Z,4.88
2023-12-10T06:54:41.452Z,6.38
2023-12-10T06:57:26.971Z,10.38
2023-12-10T07:00:13.406Z,12.50
2023-12-10T07:02:59.144Z,12.35
2023-12-10T07:05:44.818Z,11.13
2023-12-10T07:08:31.279Z,8.63
2023-12-10T07:11:16.828Z,5.78
2023-12-10T07:14:02.252Z,4.63
2023-12-10T07:16:47.996Z,3.60
2023-12-10T07:19:33.759Z,3.47
2023-12-10T07:22:19.440Z,3.38
2023-12-10T07:25:08.195Z,4.55
2023-12-10T07:27:54.383Z,3.85
2023-12-10T07:30:40.248Z,3.58
2023-12-10T07:33:25.988Z,3.88
2023-12-10T07:36:12.501Z,5.00
2023-12-10T07:38:58.249Z,5.68
2023-12-10T07:41:43.811Z,5.00
2023-12-10T07:44:29.655Z,6.18
2023-12-10T07:47:15.346Z,6.07
2023-12-10T07:50:00.680Z,6.10
2023-12-10T07:52:46.141Z,5.63
2023-12-10T07:55:31.574Z,6.55
2023-12-10T07:58:17.146Z,4.68
2023-12-10T08:01:03.759Z,4.55
2023-12-10T08:03:49.482Z,4.95
2023-12-10T08:06:35.254Z,4.65
2023-12-10T08:09:21.004Z,4.13
2023-12-10T08:12:06.804Z,4.07
2023-12-10T08:14:52.583Z,4.10
2023-12-10T08:17:38.299Z,4.47
2023-12-10T08:20:23.871Z,4.45
2023-12-10T08:23:09.414Z,3.88
2023-12-10T08:25:54.759Z,4.00
2023-12-10T08:28:40.249Z,4.88
2023-12-10T08:31:26.801Z,6.10
2023-12-10T08:34:12.641Z,5.93
2023-12-10T08:36:58.645Z,5.53
2023-12-10T08:39:44.639Z,5.32
2023-12-10T08:42:32.354Z,6.88
2023-12-10T08:45:19.253Z,6.47
2023-12-10T08:48:05.076Z,6.00
2023-12-10T08:50:50.620Z,7.03
2023-12-10T08:53:36.410Z,7.60
2023-12-10T08:56:21.796Z,8.35
2023-12-10T08:59:07.348Z,8.70
2023-12-10T09:01:52.909Z,9.60
2023-12-10T09:04:38.314Z,10.43
2023-12-10T09:07:23.643Z,8.15
2023-12-10T09:10:12.579Z,8.52
2023-12-10T09:12:59.323Z,10.52
2023-12-10T09:15:45.228Z,9.63
2023-12-10T09:18:31.229Z,12.02
2023-12-10T09:21:16.814Z,11.82
2023-12-10T09:24:02.259Z,10.60
2023-12-10T09:26:47.827Z,11.57
2023-12-10T09:29:39.765Z,10.02
2023-12-10T09:32:28.900Z,11.38
2023-12-10T09:35:14.974Z,7.57
2023-12-10T09:38:01.757Z,6.85
2023-12-10T09:40:47.436Z,8.05
2023-12-10T09:43:33.330Z,7.95
2023-12-10T09:46:18.963Z,7.35
2023-12-10T09:49:05.213Z,8.07
2023-12-10T09:51:50.646Z,9.32
2023-12-10T09:54:40.973Z,8.80
2023-12-10T09:57:29.345Z,8.85
2023-12-10T10:00:15.595Z,8.10
2023-12-10T10:03:02.852Z,9.23
2023-12-10T10:05:48.987Z,8.70
2023-12-10T10:08:34.536Z,9.55
2023-12-10T10:11:19.937Z,7.78
2023-12-10T10:14:05.983Z,8.20
2023-12-10T10:16:51.382Z,8.40
2023-12-10T10:19:37.149Z,9.57
2023-12-10T10:22:24.996Z,9.43
2023-12-10T10:25:10.541Z,8.38
2023-12-10T10:27:56.578Z,8.27
2023-12-10T10:30:42.362Z,7.85
2023-12-10T10:33:29.049Z,8.95
2023-12-10T10:36:17.526Z,8.52
2023-12-10T10:39:03.074Z,8.90
2023-12-10T10:41:50.642Z,9.90
2023-12-10T10:44:42.858Z,8.70
2023-12-10T10:47:29.503Z,9.52
2023-12-10T10:50:22.432Z,8.27
2023-12-10T10:53:11.391Z,9.32
2023-12-10T10:55:57.470Z,11.20
2023-12-10T10:58:43.008Z,8.52
2023-12-10T11:01:41.739Z,7.95
2023-12-10T11:04:40.538Z,10.38
2023-12-10T11:07:26.853Z,10.48
2023-12-10T11:10:12.645Z,11.60
2023-12-10T11:12:59.154Z,9.68
2023-12-10T11:15:44.496Z,11.10
2023-12-10T11:18:30.097Z,9.68
2023-12-10T11:21:15.968Z,10.75
2023-12-10T11:24:01.497Z,10.57
2023-12-10T11:26:47.814Z,10.52
2023-12-10T11:29:33.367Z,8.32
2023-12-10T11:32:18.645Z,8.35
2023-12-10T11:35:04.483Z,6.68
2023-12-10T11:37:50.257Z,6.38
2023-12-10T11:40:35.952Z,4.72
2023-12-10T11:43:21.566Z,4.18
2023-12-10T11:46:07.084Z,4.30
2023-12-10T11:48:53.030Z,3.45
2023-12-10T11:51:41.824Z,4.05
2023-12-10T11:54:27.724Z,3.90
2023-12-10T11:57:13.683Z,3.58
2023-12-10T12:00:02.585Z,4.63
2023-12-10T12:02:57.896Z,4.00
2023-12-10T12:05:51.896Z,3.70
2023-12-10T12:08:38.291Z,3.35
2023-12-10T12:11:23.810Z,3.90
2023-12-10T12:14:17.100Z,3.83
2023-12-10T12:17:05.088Z,4.00
2023-12-10T12:19:50.877Z,4.40
2023-12-10T12:22:36.903Z,4.10
2023-12-10T12:25:23.300Z,3.70
2023-12-10T12:28:08.811Z,3.92
2023-12-10T12:30:54.476Z,5.15
2023-12-10T12:33:40.667Z,4.78
2023-12-10T12:36:26.681Z,3.13
2023-12-10T12:39:13.018Z,4.47
2023-12-10T12:41:58.449Z,4.60
2023-12-10T12:44:43.919Z,4.65
2023-12-10T12:47:29.922Z,4.57
2023-12-10T12:50:16.149Z,4.43
2023-12-10T12:53:01.798Z,4.53
2023-12-10T12:55:47.242Z,5.40
2023-12-10T12:58:32.975Z,3.28
2023-12-10T13:01:18.873Z,3.85
2023-12-10T13:04:04.948Z,3.55
2023-12-10T13:06:50.432Z,3.50
2023-12-10T13:09:36.011Z,3.05
2023-12-10T13:12:22.470Z,3.13
2023-12-10T13:15:09.319Z,4.10
2023-12-10T13:17:55.066Z,3.90
2023-12-10T13:20:40.484Z,3.70
2023-12-10T13:23:25.840Z,3.88
2023-12-10T13:26:11.864Z,3.67
2023-12-10T13:28:57.378Z,3.67
2023-12-10T13:31:43.184Z,4.18
2023-12-10T13:34:29.209Z,3.67
2023-12-10T13:37:14.716Z,3.50
2023-12-10T13:40:00.186Z,3.95
2023-12-10T13:42:46.158Z,3.40
2023-12-10T13:45:31.575Z,4.65
2023-12-10T13:48:17.218Z,3.67
2023-12-10T13:51:02.674Z,3.67
2023-12-10T13:53:48.233Z,4.47
2023-12-10T13:56:34.777Z,4.78
2023-12-10T13:59:20.550Z,3.40
2023-12-10T14:02:08.490Z,4.40
2023-12-10T14:04:53.979Z,4.40
2023-12-10T14:07:42.191Z,3.30
2023-12-10T14:10:28.017Z,3.45
2023-12-10T14:13:13.541Z,3.58
2023-12-10T14:15:59.031Z,4.57
2023-12-10T14:18:44.456Z,4.00
2023-12-10T14:21:32.537Z,3.67
2023-12-10T14:24:18.924Z,4.82
2023-12-10T14:27:04.394Z,3.58
2023-12-10T14:29:50.127Z,4.10
2023-12-10T14:32:35.681Z,3.53
2023-12-10T14:35:21.164Z,4.57
2023-12-10T14:38:06.860Z,3.58
2023-12-10T14:40:52.620Z,4.47
2023-12-10T14:43:38.300Z,4.55
2023-12-10T14:46:23.822Z,4.82
2023-12-10T14:49:09.767Z,3.15
2023-12-10T14:51:55.551Z,4.53
2023-12-10T14:54:40.914Z,3.90
2023-12-10T14:57:26.658Z,3.17
2023-12-10T15:00:12.920Z,3.78
2023-12-10T15:02:58.390Z,4.28
2023-12-10T15:05:44.058Z,3.17
2023-12-10T15:08:35.853Z,2.50
2023-12-10T15:11:21.383Z,3.75
2023-12-10T15:14:06.670Z,2.58
2023-12-10T15:16:52.268Z,3.20
2023-12-10T15:19:44.392Z,3.28
2023-12-10T15:22:30.336Z,3.38
2023-12-10T15:25:15.860Z,3.55
2023-12-10T15:28:02.033Z,3.92
2023-12-10T15:30:47.748Z,3.05
2023-12-10T15:33:33.096Z,4.60
2023-12-10T15:36:20.898Z,3.72
2023-12-10T15:39:06.891Z,4.25
2023-12-10T15:41:53.963Z,6.15
2023-12-10T15:44:39.482Z,3.25
2023-12-10T15:47:24.867Z,3.92
2023-12-10T15:50:10.821Z,4.00
2023-12-10T15:52:56.715Z,3.30
2023-12-10T15:55:42.386Z,4.15
2023-12-10T15:58:28.034Z,4.28
2023-12-10T16:01:16.541Z,3.17
2023-12-10T16:04:04.522Z,3.50
2023-12-10T16:06:50.546Z,3.42
2023-12-10T16:09:36.053Z,3.63
2023-12-10T16:12:21.513Z,3.35
2023-12-10T16:15:07.658Z,4.40
2023-12-10T16:17:53.540Z,3.00
2023-12-10T16:20:40.034Z,2.90
2023-12-10T16:23:25.752Z,3.72
2023-12-10T16:26:11.439Z,3.40
2023-12-10T16:28:57.704Z,3.40
2023-12-10T16:31:43.341Z,5.22
2023-12-10T16:34:28.967Z,2.97
2023-12-10T16:37:16.926Z,3.80
2023-12-10T16:40:06.175Z,4.13
2023-12-10T16:42:52.146Z,3.53
2023-12-10T16:45:37.810Z,4.85
2023-12-10T16:48:24.853Z,4.00
2023-12-10T16:51:11.026Z,4.00
2023-12-10T16:53:56.598Z,4.10
2023-12-10T16:56:42.570Z,5.20
2023-12-10T16:59:28.990Z,3.58
2023-12-10T17:02:14.811Z,3.35
2023-12-10T17:05:02.551Z,3.60
2023-12-10T17:07:48.274Z,4.28
2023-12-10T17:10:34.454Z,3.70
2023-12-10T17:13:19.981Z,3.40
2023-12-10T17:16:05.860Z,3.67
2023-12-10T17:18:51.311Z,3.97
2023-12-10T17:21:36.687Z,4.15
2023-12-10T17:24:22.257Z,3.08
2023-12-10T17:27:07.928Z,3.88
2023-12-10T17:29:53.404Z,3.63
2023-12-10T17:32:39.313Z,3.10
2023-12-10T17:35:25.462Z,2.97
2023-12-10T17:38:10.999Z,4.35
2023-12-10T17:40:56.618Z,2.75
2023-12-10T17:43:42.347Z,3.55
2023-12-10T17:46:27.904Z,1.88
2023-12-10T17:49:13.833Z,2.42
2023-12-10T17:51:59.838Z,3.65
2023-12-10T17:54:45.574Z,3.28
2023-12-10T17:57:31.663Z,2.97
2023-12-10T18:00:17.895Z,4.03
2023-12-10T18:03:03.942Z,3.65
2023-12-10T18:05:49.556Z,2.92
2023-12-10T18:08:35.178Z,2.92
2023-12-10T18:11:20.726Z,3.13
2023-12-10T18:14:06.903Z,3.72
2023-12-10T18:16:52.743Z,3.45
2023-12-10T18:19:38.424Z,3.40
2023-12-10T18:22:24.952Z,5.20
2023-12-10T18:25:10.706Z,3.45
2023-12-10T18:27:56.182Z,3.78
2023-12-10T18:30:43.079Z,3.60
2023-12-10T18:33:28.775Z,3.25
2023-12-10T18:36:15.072Z,2.67
2023-12-10T18:39:01.042Z,3.72
2023-12-10T18:41:46.654Z,3.05
2023-12-10T18:44:34.022Z,3.85
2023-12-10T18:47:19.758Z,4.35
2023-12-10T18:50:05.677Z,4.85
2023-12-10T18:52:51.251Z,5.38
2023-12-10T18:55:36.825Z,4.82
2023-12-10T18:58:22.471Z,4.35
2023-12-10T19:01:08.106Z,4.32
2023-12-10T19:03:54.076Z,5.55
2023-12-10T19:06:39.460Z,3.85
2023-12-10T19:09:26.324Z,5.90
2023-12-10T19:12:11.676Z,4.97
2023-12-10T19:14:57.228Z,2.45
2023-12-10T19:17:42.841Z,3.60
2023-12-10T19:20:28.733Z,1.98
2023-12-10T19:23:14.521Z,2.17
2023-12-10T19:25:59.988Z,2.22
2023-12-10T19:28:46.827Z,1.40
2023-12-10T19:31:32.487Z,1.88
2023-12-10T19:34:18.053Z,2.90
2023-12-10T19:37:03.634Z,2.20
2023-12-10T19:39:49.131Z,1.95
2023-12-10T19:42:34.749Z,2.30
2023-12-10T19:45:20.215Z,3.95
2023-12-10T19:48:05.796Z,2.78
2023-12-10T19:50:51.049Z,2.20
2023-12-10T19:53:36.549Z,1.63
2023-12-10T19:56:22.379Z,1.85
2023-12-10T19:59:07.951Z,2.13
2023-12-10T20:01:53.603Z,1.90
2023-12-10T20:04:39.578Z,1.70
2023-12-10T20:07:25.514Z,2.10
2023-12-10T20:10:11.566Z,2.25
2023-12-10T20:12:57.126Z,2.30
2023-12-10T20:15:43.222Z,1.90
2023-12-10T20:18:29.703Z,2.17
2023-12-10T20:21:15.485Z,1.90
2023-12-10T20:24:00.972Z,2.00
2023-12-10T20:26:47.705Z,1.70
2023-12-10T20:29:33.195Z,2.17
2023-12-10T20:32:18.929Z,1.33
2023-12-10T20:35:04.859Z,1.45
2023-12-10T20:37:50.287Z,1.75
2023-12-10T20:40:38.810Z,1.30
2023-12-10T20:43:25.382Z,2.03
2023-12-10T20:46:11.249Z,2.92
2023-12-10T20:48:57.908Z,1.92
2023-12-10T20:51:45.611Z,2.88
2023-12-10T20:54:32.735Z,1.67
2023-12-10T20:57:18.338Z,1.80
2023-12-10T21:00:07.581Z,2.33
2023-12-10T21:02:53.277Z,2.80
2023-12-10T21:05:39.867Z,2.20
2023-12-10T21:08:26.837Z,1.70
2023-12-10T21:11:12.418Z,2.85
2023-12-10T21:14:00.713Z,2.83
2023-12-10T21:16:46.394Z,2.30
2023-12-10T21:19:32.454Z,2.63
2023-12-10T21:22:18.477Z,2.50
2023-12-10T21:25:04.036Z,2.70
2023-12-10T21:27:49.771Z,2.67
2023-12-10T21:30:36.462Z,3.05
2023-12-10T21:33:22.065Z,2.50
2023-12-10T21:36:07.933Z,2.78
2023-12-10T21:38:53.279Z,3.03
2023-12-10T21:41:38.662Z,2.97
2023-12-10T21:44:24.238Z,2.45
2023-12-10T21:47:09.511Z,2.38
2023-12-10T21:49:55.050Z,2.92
2023-12-10T21:52:40.450Z,4.13
2023-12-10T21:55:25.924Z,2.40
2023-12-10T21:58:11.653Z,2.78
2023-12-10T22:01:00.355Z,3.35
2023-12-10T22:03:46.628Z,2.55
2023-12-10T22:06:32.276Z,2.92
2023-12-10T22:09:17.701Z,2.55
2023-12-10T22:12:03.258Z,2.95
2023-12-10T22:14:50.697Z,3.00
2023-12-10T22:17:37.952Z,3.55
2023-12-10T22:20:23.156Z,4.13
2023-12-10T22:23:08.702Z,3.88
2023-12-10T22:25:54.155Z,3.50
2023-12-10T22:28:39.932Z,4.28
2023-12-10T22:31:25.633Z,3.00
2023-12-10T22:34:11.314Z,4.15
2023-12-10T22:36:57.085Z,4.10
2023-12-10T22:39:43.157Z,3.13
2023-12-10T22:42:28.698Z,3.45
2023-12-10T22:45:14.539Z,2.97
2023-12-10T22:48:00.111Z,3.25
2023-12-10T22:50:45.953Z,3.95
2023-12-10T22:53:31.586Z,3.83
2023-12-10T22:56:17.094Z,4.53
2023-12-10T22:59:02.536Z,5.28
2023-12-10T23:01:48.001Z,4.47
2023-12-10T23:04:33.651Z,2.58
2023-12-10T23:07:19.097Z,3.53
2023-12-10T23:10:06.146Z,3.38
2023-12-10T23:12:51.888Z,4.50
2023-12-10T23:15:37.718Z,5.07
2023-12-10T23:18:23.153Z,5.63
2023-12-10T23:21:08.728Z,6.70
2023-12-10T23:23:54.876Z,6.13
2023-12-10T23:26:40.553Z,6.90
2023-12-10T23:29:26.063Z,7.97
2023-12-10T23:32:11.721Z,5.55
2023-12-10T23:34:57.549Z,7.00
2023-12-10T23:37:43.028Z,7.22
2023-12-10T23:40:28.491Z,4.97
2023-12-10T23:43:14.109Z,6.15
2023-12-10T23:45:59.665Z,5.97
2023-12-10T23:48:45.124Z,6.82
2023-12-10T23:51:31.015Z,5.85
2023-12-10T23:54:16.537Z,5.40
2023-12-10T23:57:01.970Z,5.70
2023-12-10T23:59:47.425Z,6.13
